createdAt,value
2018-02-21T00:01:06.170Z,71.43
2018-02-21T00:03:33.762Z,71.58
2018-02-21T00:06:01.383Z,71.38
2018-02-21T00:08:29.202Z,71.23
2018-02-21T00:10:56.910Z,71.29
2018-02-21T00:13:24.609Z,71.34
2018-02-21T00:15:52.239Z,71.39
2018-02-21T00:18:19.835Z,71.62
2018-02-21T00:20:47.483Z,71.84
2018-02-21T00:23:15.083Z,71.77
2018-02-21T00:25:42.915Z,71.65
2018-02-21T00:28:10.524Z,71.65
2018-02-21T00:30:38.222Z,71.67
2018-02-21T00:33:05.891Z,71.53
2018-02-21T00:35:33.583Z,71.56
2018-02-21T00:38:01.187Z,71.48
2018-02-21T00:40:28.814Z,71.35
2018-02-21T00:42:56.479Z,71.04
2018-02-21T00:45:24.174Z,71.04
2018-02-21T00:47:51.760Z,71.13
2018-02-21T00:50:19.522Z,70.81
2018-02-21T00:52:47.119Z,71.11
2018-02-21T00:55:14.737Z,71.15
2018-02-21T00:57:42.344Z,71.25
2018-02-21T01:00:10.051Z,71.40
2018-02-21T01:02:37.680Z,71.47
2018-02-21T01:05:05.343Z,71.86
2018-02-21T01:07:32.925Z,72.38
2018-02-21T01:10:00.642Z,73.01
2018-02-21T01:12:28.314Z,73.60
2018-02-21T01:14:56.006Z,73.59
2018-02-21T01:17:23.739Z,73.38
2018-02-21T01:19:51.570Z,73.07
2018-02-21T01:22:19.242Z,72.72
2018-02-21T01:24:47.107Z,72.54
2018-02-21T01:27:14.781Z,72.26
2018-02-21T01:29:42.510Z,72.09
2018-02-21T01:32:10.105Z,72.05
2018-02-21T01:34:37.726Z,71.87
2018-02-21T01:37:05.372Z,71.71
2018-02-21T01:39:33.082Z,71.66
2018-02-21T01:42:00.684Z,71.64
2018-02-21T01:44:28.390Z,71.46
2018-02-21T01:46:56.065Z,71.31
2018-02-21T01:49:23.857Z,71.99
2018-02-21T01:51:51.525Z,73.11
2018-02-21T01:54:19.281Z,74.27
2018-02-21T01:56:46.954Z,74.72
2018-02-21T01:59:14.673Z,74.75
2018-02-21T02:01:42.412Z,74.31
2018-02-21T02:04:10.113Z,73.92
2018-02-21T02:06:37.795Z,73.74
2018-02-21T02:09:05.512Z,73.65
2018-02-21T02:11:33.177Z,74.05
2018-02-21T02:14:00.902Z,73.98
2018-02-21T02:16:28.567Z,73.75
2018-02-21T02:18:56.291Z,73.16
2018-02-21T02:21:23.973Z,72.99
2018-02-21T02:23:51.667Z,72.80
2018-02-21T02:26:19.402Z,72.75
2018-02-21T02:28:47.102Z,72.80
2018-02-21T02:31:14.781Z,72.67
2018-02-21T02:33:42.487Z,71.92
2018-02-21T02:36:10.160Z,72.23
2018-02-21T02:52:04.786Z,72.39
2018-02-21T02:54:32.503Z,72.30
2018-02-21T02:57:00.189Z,72.22
2018-02-21T02:59:27.885Z,72.30
2018-02-21T03:01:55.558Z,72.34
2018-02-21T03:04:23.263Z,72.42
2018-02-21T03:06:51.057Z,72.57
2018-02-21T03:09:18.730Z,72.61
2018-02-21T03:11:46.430Z,72.41
2018-02-21T03:14:14.094Z,72.34
2018-02-21T03:16:41.928Z,72.17
2018-02-21T03:19:09.606Z,71.90
2018-02-21T03:21:37.294Z,72.12
2018-02-21T03:24:04.981Z,72.44
2018-02-21T03:26:32.822Z,72.60
2018-02-21T03:29:00.502Z,72.80
2018-02-21T03:31:28.215Z,72.85
2018-02-21T03:33:55.954Z,72.57
2018-02-21T03:36:23.627Z,72.56
2018-02-21T03:38:51.446Z,72.60
2018-02-21T03:41:19.123Z,72.69
2018-02-21T03:43:46.882Z,72.60
2018-02-21T03:46:14.624Z,72.77
2018-02-21T03:48:42.323Z,72.75
2018-02-21T03:51:10.006Z,72.89
2018-02-21T03:53:37.712Z,72.95
2018-02-21T03:56:05.382Z,73.03
2018-02-21T03:58:33.098Z,72.95
2018-02-21T04:01:00.771Z,73.04
2018-02-21T04:03:28.512Z,73.16
2018-02-21T04:05:56.186Z,72.99
2018-02-21T04:08:23.893Z,72.88
2018-02-21T04:10:51.494Z,72.76
2018-02-21T04:13:19.386Z,72.78
2018-02-21T04:15:47.070Z,72.79
2018-02-21T04:18:14.699Z,72.76
2018-02-21T04:20:42.370Z,72.91
2018-02-21T04:23:10.150Z,72.92
2018-02-21T04:25:37.878Z,72.74
2018-02-21T04:28:05.594Z,72.94
2018-02-21T04:30:33.281Z,73.31
2018-02-21T04:33:01.124Z,73.44
2018-02-21T04:35:28.798Z,73.56
2018-02-21T04:37:56.894Z,73.54
2018-02-21T04:40:24.567Z,73.67
2018-02-21T04:42:52.326Z,73.53
2018-02-21T04:45:19.989Z,73.58
2018-02-21T04:47:47.766Z,73.77
2018-02-21T04:50:15.452Z,74.06
2018-02-21T04:52:43.234Z,74.29
2018-02-21T05:08:33.802Z,74.61
2018-02-21T05:11:01.509Z,74.62
2018-02-21T05:13:29.209Z,74.77
2018-02-21T05:15:56.938Z,75.24
2018-02-21T05:18:24.635Z,75.45
2018-02-21T05:20:52.315Z,75.74
2018-02-21T05:23:20.010Z,75.59
2018-02-21T05:25:47.662Z,75.57
2018-02-21T05:28:15.342Z,75.31
2018-02-21T05:30:43.126Z,75.48
2018-02-21T05:33:10.799Z,75.27
2018-02-21T05:35:38.499Z,74.64
2018-02-21T05:38:06.239Z,74.86
2018-02-21T05:40:33.978Z,74.84
2018-02-21T05:43:01.694Z,74.48
2018-02-21T05:45:29.422Z,74.41
2018-02-21T05:47:57.740Z,74.81
2018-02-21T05:50:25.429Z,74.86
2018-02-21T05:52:53.126Z,74.75
2018-02-21T05:55:20.801Z,74.92
2018-02-21T05:57:48.499Z,82.43
2018-02-21T06:00:16.178Z,90.42
2018-02-21T06:02:43.849Z,87.85
2018-02-21T06:05:11.451Z,89.73
2018-02-21T06:07:39.082Z,85.82
2018-02-21T06:10:06.701Z,80.72
2018-02-21T06:12:34.286Z,79.70
2018-02-21T06:15:01.947Z,70.54
2018-02-21T06:17:29.550Z,66.88
2018-02-21T06:19:57.182Z,66.12
2018-02-21T06:22:25.008Z,67.17
2018-02-21T06:24:52.619Z,68.24
2018-02-21T06:27:20.214Z,69.40
2018-02-21T06:29:47.855Z,70.24
2018-02-21T06:32:15.549Z,70.56
2018-02-21T06:34:43.166Z,70.87
2018-02-21T06:37:10.787Z,71.27
2018-02-21T06:39:38.386Z,71.50
2018-02-21T06:42:06.013Z,71.81
2018-02-21T06:44:33.639Z,72.21
2018-02-21T06:47:01.232Z,72.40
2018-02-21T06:49:28.867Z,72.74
2018-02-21T06:51:56.454Z,73.04
2018-02-21T06:54:24.096Z,73.22
2018-02-21T06:56:51.687Z,73.27
2018-02-21T06:59:19.299Z,73.34
2018-02-21T07:01:46.974Z,73.54
2018-02-21T07:04:14.588Z,73.56
2018-02-21T07:06:42.143Z,73.61
2018-02-21T07:09:09.846Z,73.74
2018-02-21T07:11:37.518Z,73.95
2018-02-21T07:14:05.142Z,74.22
2018-02-21T07:16:32.853Z,74.42
2018-02-21T07:19:00.549Z,74.94
2018-02-21T07:21:28.296Z,75.51
2018-02-21T07:23:56.153Z,76.03
2018-02-21T07:26:23.838Z,76.46
2018-02-21T07:28:51.596Z,77.28
2018-02-21T07:31:19.219Z,77.99
2018-02-21T07:33:46.925Z,78.55
2018-02-21T07:36:14.611Z,79.19
2018-02-21T07:38:42.319Z,79.71
2018-02-21T07:41:10.020Z,80.38
2018-02-21T07:43:37.728Z,80.59
2018-02-21T07:46:05.427Z,80.67
2018-02-21T07:48:33.138Z,80.51
2018-02-21T07:51:00.850Z,80.18
2018-02-21T07:53:28.503Z,79.75
2018-02-21T07:55:56.210Z,79.18
2018-02-21T07:58:23.891Z,79.17
2018-02-21T08:00:51.583Z,79.12
2018-02-21T08:03:19.274Z,78.91
2018-02-21T08:05:47.017Z,78.67
2018-02-21T08:08:14.690Z,78.52
2018-02-21T08:10:42.445Z,78.40
2018-02-21T08:13:10.138Z,78.53
2018-02-21T08:15:37.850Z,78.68
2018-02-21T08:18:05.530Z,78.63
2018-02-21T08:20:33.405Z,78.85
2018-02-21T08:23:01.077Z,79.26
2018-02-21T08:25:28.794Z,79.17
2018-02-21T08:27:56.938Z,79.12
2018-02-21T08:30:24.694Z,79.05
2018-02-21T08:32:52.370Z,79.04
2018-02-21T08:35:20.074Z,78.67
2018-02-21T08:37:47.761Z,78.58
2018-02-21T08:40:15.514Z,78.83
2018-02-21T08:42:43.186Z,78.41
2018-02-21T08:45:11.063Z,78.31
2018-02-21T08:47:38.733Z,78.23
2018-02-21T08:50:06.449Z,78.13
2018-02-21T08:52:34.285Z,77.81
2018-02-21T08:55:02.027Z,77.59
2018-02-21T08:57:29.715Z,77.68
2018-02-21T08:59:57.546Z,78.01
2018-02-21T09:02:25.218Z,78.00
2018-02-21T09:04:52.942Z,77.32
2018-02-21T09:07:20.627Z,77.37
2018-02-21T09:09:48.413Z,77.11
2018-02-21T09:12:16.095Z,76.47
2018-02-21T09:14:43.794Z,76.23
2018-02-21T09:17:11.472Z,75.97
2018-02-21T09:19:39.179Z,75.96
2018-02-21T09:22:06.863Z,75.00
2018-02-21T09:24:34.558Z,74.77
2018-02-21T09:27:02.165Z,74.65
2018-02-21T09:29:29.866Z,75.33
2018-02-21T09:31:57.558Z,75.11
2018-02-21T09:34:25.183Z,75.21
2018-02-21T09:36:52.778Z,74.84
2018-02-21T09:39:20.501Z,74.72
2018-02-21T09:41:48.174Z,74.41
2018-02-21T09:44:15.826Z,74.11
2018-02-21T09:46:43.574Z,73.10
2018-02-21T09:49:11.447Z,72.81
2018-02-21T09:51:39.174Z,72.34
2018-02-21T09:54:06.823Z,72.10
2018-02-21T09:56:34.462Z,72.53
2018-02-21T09:59:02.074Z,72.47
2018-02-21T10:01:29.699Z,71.66
2018-02-21T10:03:57.482Z,71.55
2018-02-21T10:06:25.111Z,70.42
2018-02-21T10:08:52.710Z,69.14
2018-02-21T10:11:20.342Z,68.81
2018-02-21T10:13:47.950Z,67.82
2018-02-21T10:16:15.605Z,66.38
2018-02-21T10:18:43.205Z,66.59
2018-02-21T10:21:10.822Z,65.14
2018-02-21T10:23:38.451Z,62.94
2018-02-21T10:26:06.075Z,61.43
2018-02-21T10:28:33.682Z,61.11
2018-02-21T10:31:01.316Z,59.53
2018-02-21T10:33:28.924Z,59.46
2018-02-21T10:35:56.563Z,59.34
2018-02-21T10:38:24.176Z,58.24
2018-02-21T10:40:51.777Z,57.61
2018-02-21T10:43:19.510Z,57.00
2018-02-21T10:45:47.137Z,56.67
2018-02-21T10:48:14.746Z,56.49
2018-02-21T10:50:42.377Z,56.04
2018-02-21T10:53:10.050Z,55.72
2018-02-21T10:55:37.767Z,55.45
2018-02-21T10:58:05.402Z,53.28
2018-02-21T11:00:38.587Z,53.08
2018-02-21T11:03:06.202Z,53.13
2018-02-21T11:05:33.801Z,52.60
2018-02-21T11:08:05.210Z,51.81
2018-02-21T11:10:32.809Z,49.96
2018-02-21T11:13:00.437Z,50.27
2018-02-21T11:15:28.039Z,48.59
2018-02-21T11:17:55.998Z,48.68
2018-02-21T11:20:23.605Z,49.41
2018-02-21T11:22:51.244Z,48.50
2018-02-21T11:25:18.835Z,48.16
2018-02-21T11:27:46.454Z,47.29
2018-02-21T11:30:14.052Z,45.86
2018-02-21T11:32:41.690Z,45.76
2018-02-21T11:35:09.284Z,45.59
2018-02-21T11:37:36.988Z,45.95
2018-02-21T11:40:04.583Z,48.03
2018-02-21T11:42:32.250Z,44.63
2018-02-21T11:44:59.867Z,43.28
2018-02-21T11:47:27.493Z,42.97
2018-02-21T11:49:55.099Z,43.76
2018-02-21T11:52:22.690Z,44.14
2018-02-21T11:54:50.357Z,43.35
2018-02-21T11:57:17.983Z,44.03
2018-02-21T11:59:45.625Z,44.01
2018-02-21T12:02:13.230Z,43.63
2018-02-21T12:04:40.862Z,43.47
2018-02-21T12:07:08.471Z,43.42
2018-02-21T12:09:36.101Z,43.12
2018-02-21T12:12:03.809Z,43.96
2018-02-21T12:14:31.427Z,44.35
2018-02-21T12:16:59.130Z,44.31
2018-02-21T12:19:26.778Z,44.93
2018-02-21T12:21:54.431Z,42.55
2018-02-21T12:24:22.062Z,43.46
2018-02-21T12:26:49.679Z,43.96
2018-02-21T12:29:17.326Z,41.22
2018-02-21T12:31:44.970Z,41.49
2018-02-21T12:34:12.619Z,42.13
2018-02-21T12:36:40.235Z,41.64
2018-02-21T12:52:34.702Z,37.34
2018-02-21T12:55:02.356Z,36.23
2018-02-21T12:57:29.954Z,36.34
2018-02-21T12:59:57.611Z,38.03
2018-02-21T13:02:25.284Z,42.29
2018-02-21T13:04:52.934Z,42.54
2018-02-21T13:07:20.528Z,40.80
2018-02-21T13:09:48.162Z,40.22
2018-02-21T13:12:15.811Z,39.86
2018-02-21T13:14:43.497Z,42.30
2018-02-21T13:17:11.107Z,42.36
2018-02-21T13:19:38.729Z,40.26
2018-02-21T13:22:06.337Z,40.59
2018-02-21T13:24:33.974Z,40.75
2018-02-21T13:27:01.579Z,41.43
2018-02-21T13:29:29.222Z,41.51
2018-02-21T13:31:56.819Z,41.21
2018-02-21T13:34:24.470Z,40.21
2018-02-21T13:36:52.087Z,40.70
2018-02-21T13:39:19.698Z,41.03
2018-02-21T13:41:47.351Z,41.16
2018-02-21T13:44:14.977Z,39.02
2018-02-21T13:46:42.613Z,38.15
2018-02-21T13:49:10.299Z,36.40
2018-02-21T13:51:37.898Z,35.95
2018-02-21T13:54:05.687Z,35.08
2018-02-21T13:56:33.313Z,36.42
2018-02-21T13:59:00.970Z,36.92
2018-02-21T14:01:28.655Z,37.28
2018-02-21T14:03:56.298Z,36.84
2018-02-21T14:06:23.915Z,36.70
2018-02-21T14:08:51.555Z,37.32
2018-02-21T14:11:19.154Z,37.52
2018-02-21T14:13:46.787Z,35.94
2018-02-21T14:16:14.410Z,35.43
2018-02-21T14:18:42.043Z,36.03
2018-02-21T14:21:09.630Z,34.61
2018-02-21T14:23:37.386Z,33.40
2018-02-21T14:26:04.974Z,33.14
2018-02-21T14:28:32.611Z,33.85
2018-02-21T14:31:00.275Z,34.64
2018-02-21T14:33:28.020Z,33.99
2018-02-21T14:35:55.680Z,33.93
2018-02-21T14:38:23.346Z,32.94
2018-02-21T14:40:50.986Z,32.66
2018-02-21T14:43:18.623Z,33.13
2018-02-21T14:45:46.234Z,34.41
2018-02-21T14:48:13.878Z,33.56
2018-02-21T14:50:41.686Z,33.77
2018-02-21T14:53:09.378Z,33.65
2018-02-21T14:55:36.991Z,33.25
2018-02-21T14:58:04.647Z,32.43
2018-02-21T15:00:32.277Z,33.39
2018-02-21T15:02:59.930Z,33.07
2018-02-21T15:05:27.583Z,33.55
2018-02-21T15:07:55.190Z,34.42
2018-02-21T15:10:22.827Z,34.21
2018-02-21T15:12:50.439Z,33.32
2018-02-21T15:15:18.091Z,33.70
2018-02-21T15:17:45.694Z,34.27
2018-02-21T15:20:13.327Z,34.44
2018-02-21T15:22:40.939Z,34.87
2018-02-21T15:25:08.566Z,34.79
2018-02-21T15:27:36.162Z,35.40
2018-02-21T15:30:03.892Z,35.59
2018-02-21T15:32:31.494Z,35.48
2018-02-21T15:34:59.151Z,35.38
2018-02-21T15:37:26.738Z,35.57
2018-02-21T15:39:54.372Z,36.45
2018-02-21T15:42:21.990Z,36.34
2018-02-21T15:44:49.625Z,36.96
2018-02-21T15:47:17.233Z,37.31
2018-02-21T15:49:44.831Z,37.67
2018-02-21T15:52:12.467Z,38.16
2018-02-21T15:54:40.081Z,38.02
2018-02-21T15:57:07.756Z,38.64
2018-02-21T15:59:35.363Z,38.86
2018-02-21T16:02:03.024Z,38.43
2018-02-21T16:04:30.783Z,38.90
2018-02-21T16:06:58.387Z,39.50
2018-02-21T16:09:26.054Z,39.22
2018-02-21T16:11:53.659Z,39.44
2018-02-21T16:14:21.295Z,39.75
2018-02-21T16:16:48.910Z,40.27
2018-02-21T16:19:16.587Z,40.42
2018-02-21T16:21:44.219Z,41.08
2018-02-21T16:24:11.870Z,41.48
2018-02-21T16:26:39.460Z,41.42
2018-02-21T16:29:07.052Z,42.42
2018-02-21T16:31:34.778Z,43.19
2018-02-21T16:34:02.371Z,43.97
2018-02-21T16:36:29.998Z,44.53
2018-02-21T16:38:57.610Z,45.15
2018-02-21T16:41:25.365Z,45.50
2018-02-21T16:43:52.951Z,45.99
2018-02-21T16:46:20.596Z,46.70
2018-02-21T16:48:48.194Z,46.95
2018-02-21T16:51:15.834Z,47.75
2018-02-21T16:53:43.440Z,48.20
2018-02-21T16:56:11.166Z,48.07
2018-02-21T16:58:38.767Z,48.42
2018-02-21T17:01:06.464Z,48.87
2018-02-21T17:03:34.134Z,48.35
2018-02-21T17:06:01.771Z,48.58
2018-02-21T17:08:29.363Z,48.37
2018-02-21T17:10:56.999Z,48.11
2018-02-21T17:13:24.614Z,47.69
2018-02-21T17:15:52.239Z,47.92
2018-02-21T17:18:19.830Z,48.28
2018-02-21T17:20:47.599Z,48.24
2018-02-21T17:23:15.207Z,48.68
2018-02-21T17:25:42.854Z,48.74
2018-02-21T17:28:10.458Z,48.41
2018-02-21T17:30:38.107Z,49.01
2018-02-21T17:33:05.702Z,49.10
2018-02-21T17:35:33.336Z,49.54
2018-02-21T17:38:00.951Z,49.66
2018-02-21T17:40:28.576Z,49.83
2018-02-21T17:42:56.219Z,50.02
2018-02-21T17:45:23.846Z,50.08
2018-02-21T17:47:51.460Z,50.29
2018-02-21T17:50:19.092Z,50.66
2018-02-21T17:52:46.694Z,50.64
2018-02-21T17:55:14.347Z,50.90
2018-02-21T17:57:41.950Z,50.60
2018-02-21T18:00:09.630Z,51.08
2018-02-21T18:02:37.220Z,50.86
2018-02-21T18:05:04.863Z,50.76
2018-02-21T18:07:32.478Z,50.90
2018-02-21T18:10:00.124Z,51.01
2018-02-21T18:12:27.776Z,51.20
2018-02-21T18:14:55.404Z,51.35
2018-02-21T18:17:23.014Z,51.69
2018-02-21T18:19:50.721Z,51.83
2018-02-21T18:22:18.319Z,52.19
2018-02-21T18:24:45.981Z,52.46
2018-02-21T18:27:13.598Z,52.78
2018-02-21T18:29:41.250Z,52.97
2018-02-21T18:32:08.846Z,53.50
2018-02-21T18:34:36.466Z,53.75
2018-02-21T18:37:04.102Z,54.02
2018-02-21T18:39:31.738Z,54.34
2018-02-21T18:41:59.363Z,55.03
2018-02-21T18:44:26.987Z,55.13
2018-02-21T18:46:54.582Z,55.40
2018-02-21T18:49:22.237Z,55.63
2018-02-21T18:51:49.867Z,55.42
2018-02-21T18:54:17.519Z,55.43
2018-02-21T18:56:45.145Z,55.37
2018-02-21T18:59:12.774Z,55.53
2018-02-21T19:01:40.448Z,55.78
2018-02-21T19:04:08.076Z,55.98
2018-02-21T19:06:35.674Z,55.76
2018-02-21T19:09:03.388Z,56.28
2018-02-21T19:11:31.016Z,56.19
2018-02-21T19:13:58.637Z,57.06
2018-02-21T19:16:26.256Z,56.38
2018-02-21T19:18:53.877Z,56.00
2018-02-21T19:21:21.484Z,56.06
2018-02-21T19:23:49.385Z,56.22
2018-02-21T19:26:16.972Z,56.46
2018-02-21T19:28:44.626Z,56.37
2018-02-21T19:31:12.250Z,56.34
2018-02-21T19:33:39.838Z,56.51
2018-02-21T19:36:07.488Z,56.64
2018-02-21T19:38:35.106Z,56.80
2018-02-21T19:41:02.736Z,56.71
2018-02-21T19:43:30.351Z,56.67
2018-02-21T19:45:58.014Z,56.77
2018-02-21T19:48:25.609Z,57.12
2018-02-21T19:50:53.227Z,57.18
2018-02-21T19:53:20.869Z,57.17
2018-02-21T19:55:48.452Z,57.35
2018-02-21T19:58:16.051Z,57.29
2018-02-21T20:00:43.683Z,57.71
2018-02-21T20:03:11.311Z,57.96
2018-02-21T20:05:38.926Z,57.66
2018-02-21T20:08:06.551Z,58.71
2018-02-21T20:10:34.206Z,59.21
2018-02-21T20:13:01.844Z,59.13
2018-02-21T20:15:29.486Z,59.38
2018-02-21T20:17:57.698Z,59.41
2018-02-21T20:20:25.331Z,59.94
2018-02-21T20:22:52.960Z,60.51
2018-02-21T20:25:20.583Z,60.97
2018-02-21T20:27:48.238Z,60.51
2018-02-21T20:30:15.921Z,60.83
2018-02-21T20:32:43.530Z,60.69
2018-02-21T20:35:11.174Z,60.63
2018-02-21T20:37:38.835Z,60.38
2018-02-21T20:40:06.475Z,60.53
2018-02-21T20:42:34.070Z,60.53
2018-02-21T20:45:01.714Z,60.24
2018-02-21T20:47:29.301Z,60.17
2018-02-21T20:49:56.930Z,60.21
2018-02-21T20:52:24.525Z,60.19
2018-02-21T20:54:52.137Z,60.00
2018-02-21T20:57:19.735Z,60.20
2018-02-21T20:59:47.362Z,60.29
2018-02-21T21:02:14.959Z,60.23
2018-02-21T21:04:42.610Z,60.57
2018-02-21T21:07:10.207Z,60.42
2018-02-21T21:09:37.832Z,60.69
2018-02-21T21:12:05.439Z,60.90
2018-02-21T21:14:33.058Z,60.74
2018-02-21T21:17:00.741Z,60.84
2018-02-21T21:19:28.326Z,60.71
2018-02-21T21:21:55.914Z,60.66
2018-02-21T21:24:23.570Z,60.70
2018-02-21T21:26:51.167Z,60.83
2018-02-21T21:29:18.811Z,60.83
2018-02-21T21:31:46.417Z,60.67
2018-02-21T21:34:14.039Z,60.75
2018-02-21T21:36:41.748Z,60.83
2018-02-21T21:39:09.497Z,61.16
2018-02-21T21:41:37.066Z,61.37
2018-02-21T21:44:04.698Z,61.44
2018-02-21T21:46:32.290Z,61.48
2018-02-21T21:48:59.991Z,61.66
2018-02-21T21:51:27.593Z,61.86
2018-02-21T21:53:55.213Z,61.98
2018-02-21T21:56:22.822Z,61.92
2018-02-21T21:58:50.452Z,62.04
2018-02-21T22:01:18.052Z,62.19
2018-02-21T22:03:45.680Z,62.16
2018-02-21T22:06:13.364Z,62.34
2018-02-21T22:08:40.988Z,62.51
2018-02-21T22:11:08.579Z,62.80
2018-02-21T22:13:36.206Z,63.13
2018-02-21T22:16:03.823Z,63.37
2018-02-21T22:18:31.443Z,63.22
2018-02-21T22:20:59.059Z,63.27
2018-02-21T22:23:26.695Z,63.21
2018-02-21T22:25:54.444Z,63.37
2018-02-21T22:28:22.064Z,63.42
2018-02-21T22:30:49.671Z,63.45
2018-02-21T22:33:17.292Z,63.47
2018-02-21T22:35:44.884Z,63.59
2018-02-21T22:38:12.521Z,63.94
2018-02-21T22:40:40.119Z,63.96
2018-02-21T22:43:07.765Z,64.18
2018-02-21T22:45:35.370Z,64.32
2018-02-21T22:48:02.979Z,64.49
2018-02-21T22:50:30.571Z,64.73
2018-02-21T22:52:58.275Z,64.72
2018-02-21T22:55:25.866Z,64.66
2018-02-21T22:57:53.501Z,64.67
2018-02-21T23:00:21.097Z,65.08
2018-02-21T23:02:48.711Z,65.21
2018-02-21T23:05:16.312Z,65.19
2018-02-21T23:07:43.941Z,65.37
2018-02-21T23:10:11.550Z,65.45
2018-02-21T23:12:39.162Z,65.48
2018-02-21T23:15:06.766Z,66.05
2018-02-21T23:17:34.398Z,66.67
2018-02-21T23:20:01.990Z,66.67
2018-02-21T23:22:29.674Z,66.63
2018-02-21T23:24:57.269Z,66.54
2018-02-21T23:27:24.902Z,66.70
2018-02-21T23:29:52.536Z,66.78
2018-02-21T23:32:20.154Z,66.90
2018-02-21T23:34:47.755Z,66.83
2018-02-21T23:37:15.378Z,66.52
2018-02-21T23:39:42.977Z,66.66
2018-02-21T23:42:10.607Z,66.53
2018-02-21T23:44:38.210Z,66.50
2018-02-21T23:47:05.811Z,66.34
2018-02-21T23:49:33.530Z,66.66
2018-02-21T23:52:01.130Z,66.56
2018-02-21T23:54:28.831Z,66.72
2018-02-21T23:56:56.458Z,67.07
2018-02-21T23:59:24.066Z,66.98
